Time;durP1;ratioP1;P1;durP2;ratioP2;P2;SDS_P1;SDS_P2;PMS_P1;PMS_P2;Temp;Humidity;BMP_temperature;BMP_pressure;BME280_temperature;BME280_humidity;BME280_pressure;Samples;Min_cycle;Max_cycle;Signal;HPM_P1;HPM_P2
2023/03/06 00:01:38;;;;;;;77.90;30.13;;;;;;;-2.25;100.00;99729.53;5092051;56;1140806;-65
2023/03/06 00:06:44;;;;;;;80.85;27.58;;;;;;;-2.32;100.00;99728.09;5092164;56;1140899;-68
2023/03/06 00:11:50;;;;;;;84.27;29.93;;;;;;;-2.36;100.00;99727.80;5201951;55;1140896;-69
2023/03/06 00:16:56;;;;;;;81.37;31.17;;;;;;;-2.41;100.00;99722.39;5183478;55;1140895;-65
2023/03/06 00:22:03;;;;;;;52.07;19.50;;;;;;;-2.44;100.00;99716.06;5136182;55;1140861;-68
2023/03/06 00:27:10;;;;;;;78.50;30.17;;;;;;;-2.39;100.00;99710.23;5143262;55;1141070;-68
2023/03/06 00:32:17;;;;;;;80.50;29.73;;;;;;;-2.41;100.00;99712.88;5204054;55;1140877;-70
2023/03/06 00:37:26;;;;;;;52.80;23.05;;;;;;;-2.42;100.00;99716.38;5129151;55;1140802;-70
2023/03/06 00:42:31;;;;;;;48.08;18.60;;;;;;;-2.41;100.00;99710.74;5137472;55;1140780;-68
2023/03/06 00:47:37;;;;;;;70.80;26.60;;;;;;;-2.39;100.00;99694.70;5117449;55;1140751;-67
2023/03/06 00:52:43;;;;;;;55.23;23.27;;;;;;;-2.36;100.00;99686.38;5117612;56;1140848;-68
2023/03/06 00:57:49;;;;;;;56.53;19.37;;;;;;;-2.42;100.00;99674.95;5137296;56;1140815;-68
2023/03/06 01:02:55;;;;;;;48.67;17.70;;;;;;;-2.39;100.00;99677.42;5117077;55;1140846;-67
2023/03/06 01:08:01;;;;;;;44.57;15.87;;;;;;;-2.35;100.00;99666.05;5105786;56;1140882;-66
2023/03/06 01:13:07;;;;;;;34.63;14.50;;;;;;;-2.33;100.00;99669.44;5052672;57;1141028;-69
2023/03/06 01:18:14;;;;;;;33.00;13.73;;;;;;;-2.35;100.00;99671.69;5042062;56;1140836;-65
2023/03/06 01:23:19;;;;;;;45.83;18.20;;;;;;;-2.33;100.00;99662.11;5061099;56;1140716;-67
2023/03/06 01:28:27;;;;;;;53.97;17.13;;;;;;;-2.36;100.00;99655.30;5185405;55;1140826;-67
2023/03/06 01:33:34;;;;;;;29.97;12.23;;;;;;;-2.32;100.00;99658.63;5171350;55;1140889;-68
2023/03/06 01:38:40;;;;;;;57.50;16.63;;;;;;;-2.29;100.00;99646.38;5116881;54;1141046;-71
2023/03/06 01:43:48;;;;;;;35.98;14.70;;;;;;;-2.29;100.00;99638.61;5117405;55;1140909;-70
2023/03/06 01:49:01;;;;;;;47.00;16.87;;;;;;;-2.28;100.00;99636.86;5197603;55;1140850;-66
2023/03/06 01:54:16;;;;;;;51.40;19.02;;;;;;;-2.31;100.00;99624.91;5158753;55;1140837;-67
2023/03/06 01:59:25;;;;;;;37.83;14.83;;;;;;;-2.24;100.00;99626.33;5183043;55;1140956;-68
2023/03/06 02:04:32;;;;;;;38.30;13.93;;;;;;;-2.20;100.00;99626.61;5203781;55;1140935;-71
2023/03/06 02:09:39;;;;;;;25.30;11.00;;;;;;;-2.21;100.00;99615.86;5109079;55;1141007;-70
2023/03/06 02:14:46;;;;;;;35.27;13.87;;;;;;;-2.17;100.00;99615.29;5037513;55;1140966;-68
2023/03/06 02:20:20;;;;;;;42.87;16.63;;;;;;;-2.16;100.00;99613.09;5099892;56;1140829;-70
2023/03/06 02:25:39;;;;;;;53.42;19.05;;;;;;;-2.15;100.00;99609.59;5098652;56;1140960;-69
2023/03/06 02:30:50;;;;;;;39.48;15.55;;;;;;;-2.16;100.00;99597.09;5116097;56;1140929;-66
2023/03/06 02:35:59;;;;;;;44.90;16.67;;;;;;;-2.16;100.00;99600.14;5116875;56;1140903;-67
2023/03/06 02:41:08;;;;;;;43.27;15.83;;;;;;;-2.19;100.00;99600.26;5186339;55;1141017;-69
2023/03/06 02:46:14;;;;;;;38.67;15.30;;;;;;;-2.18;100.00;99596.31;5155202;55;1141019;-70
2023/03/06 02:51:21;;;;;;;40.93;14.13;;;;;;;-2.17;100.00;99598.45;5183041;55;1140829;-65
2023/03/06 02:56:29;;;;;;;29.85;12.90;;;;;;;-2.22;100.00;99588.72;5203470;55;1140858;-68
2023/03/06 03:01:35;;;;;;;35.83;12.30;;;;;;;-2.32;100.00;99575.77;5183232;55;1140895;-65
2023/03/06 03:06:41;;;;;;;36.80;14.83;;;;;;;-2.40;100.00;99577.80;5182935;55;1140940;-68
2023/03/06 03:11:48;;;;;;;43.98;16.30;;;;;;;-2.44;100.00;99577.55;5061405;55;1140925;-68
2023/03/06 03:16:54;;;;;;;48.33;18.40;;;;;;;-2.46;100.00;99577.61;5132634;56;1140993;-68
2023/03/06 03:22:02;;;;;;;63.10;20.90;;;;;;;-2.44;100.00;99566.72;5070948;55;1140843;-70
2023/03/06 03:27:09;;;;;;;33.60;14.17;;;;;;;-2.38;100.00;99561.75;5045182;56;1140909;-67
2023/03/06 03:32:16;;;;;;;50.47;16.23;;;;;;;-2.37;100.00;99559.56;5137137;56;1140748;-66
2023/03/06 03:37:23;;;;;;;42.03;15.53;;;;;;;-2.32;100.00;99555.05;5144693;55;1141005;-67
2023/03/06 03:42:30;;;;;;;28.52;12.10;;;;;;;-2.30;100.00;99549.36;5101410;55;1140902;-64
2023/03/06 03:47:36;;;;;;;31.07;11.88;;;;;;;-2.21;100.00;99552.86;5137401;55;1140997;-67
2023/03/06 03:52:42;;;;;;;32.47;12.33;;;;;;;-2.18;100.00;99548.84;5117659;55;1140824;-68
2023/03/06 03:57:49;;;;;;;37.00;11.43;;;;;;;-2.23;100.00;99541.71;5117587;55;1140815;-69
2023/03/06 04:02:55;;;;;;;26.68;10.88;;;;;;;-2.30;100.00;99543.73;5137722;55;1140785;-67
2023/03/06 04:08:03;;;;;;;37.90;12.43;;;;;;;-2.26;100.00;99541.38;5117634;56;1140843;-65
2023/03/06 04:13:10;;;;;;;29.72;13.05;;;;;;;-2.20;100.00;99531.23;5183802;55;1140851;-66
2023/03/06 04:18:22;;;;;;;35.58;12.33;;;;;;;-2.29;100.00;99529.84;5164562;55;1141008;-69
2023/03/06 04:23:30;;;;;;;33.13;12.67;;;;;;;-2.40;100.00;99515.66;5190194;55;1149195;-69
2023/03/06 04:28:36;;;;;;;27.07;11.27;;;;;;;-2.40;100.00;99515.66;5076720;55;1140821;-68
2023/03/06 04:33:43;;;;;;;26.60;11.03;;;;;;;-2.47;100.00;99514.24;5210368;55;1140881;-70
2023/03/06 04:38:49;;;;;;;33.97;13.37;;;;;;;-2.50;100.00;99506.98;5199974;55;1140905;-67
2023/03/06 04:43:55;;;;;;;32.37;13.23;;;;;;;-2.50;100.00;99497.92;5198104;55;1140907;-70
2023/03/06 04:49:02;;;;;;;34.77;13.03;;;;;;;-2.49;100.00;99489.26;5198589;55;1140938;-65
2023/03/06 04:54:08;;;;;;;38.27;13.67;;;;;;;-2.46;100.00;99484.41;5221452;55;1140848;-68
2023/03/06 04:59:15;;;;;;;37.90;13.20;;;;;;;-2.41;100.00;99488.08;5208130;55;1140953;-66
2023/03/06 05:04:21;;;;;;;40.47;15.03;;;;;;;-2.39;100.00;99483.69;5173732;55;1140841;-68
2023/03/06 05:09:27;;;;;;;48.67;16.53;;;;;;;-2.36;100.00;99480.98;5209664;55;1140773;-68
2023/03/06 05:14:34;;;;;;;41.18;15.25;;;;;;;-2.34;100.00;99468.81;5204543;55;1140820;-66
2023/03/06 05:19:40;;;;;;;41.18;16.12;;;;;;;-2.30;100.00;99463.45;5130999;55;1140848;-67
2023/03/06 05:24:46;;;;;;;44.00;17.17;;;;;;;-2.24;100.00;99465.77;5134994;55;1140807;-64
2023/03/06 05:29:52;;;;;;;115.73;35.40;;;;;;;-2.18;100.00;99465.52;5150998;56;1140983;-66
2023/03/06 05:34:57;;;;;;;56.17;19.87;;;;;;;-2.11;100.00;99458.30;5140680;55;1142940;-65
2023/03/06 05:40:08;;;;;;;39.13;17.60;;;;;;;-2.09;100.00;99462.97;5147458;55;1140921;-67
2023/03/06 05:45:13;;;;;;;35.70;14.37;;;;;;;-2.09;100.00;99464.27;5105750;55;1141015;-69
2023/03/06 05:50:19;;;;;;;38.40;16.27;;;;;;;-2.06;100.00;99462.00;5046110;56;1140771;-67
2023/03/06 05:55:26;;;;;;;39.27;16.10;;;;;;;-2.01;100.00;99455.73;5109074;56;1140846;-66
2023/03/06 06:00:32;;;;;;;33.77;13.23;;;;;;;-1.98;100.00;99451.69;5127081;55;1140826;-70
2023/03/06 06:05:41;;;;;;;55.73;17.27;;;;;;;-1.98;100.00;99446.95;5025408;56;1140777;-72
2023/03/06 06:10:47;;;;;;;37.80;14.77;;;;;;;-1.98;100.00;99453.44;5017788;56;1140823;-67
2023/03/06 06:15:53;;;;;;;70.85;18.42;;;;;;;-1.95;100.00;99448.97;5077399;56;1140827;-68
2023/03/06 06:20:59;;;;;;;48.93;15.63;;;;;;;-1.84;100.00;99453.25;5069472;56;1140918;-70
2023/03/06 06:26:08;;;;;;;54.30;17.30;;;;;;;-1.84;100.00;99453.25;5019178;56;1140780;-66
2023/03/06 06:31:14;;;;;;;43.67;14.80;;;;;;;-1.78;100.00;99449.52;5024697;56;1140684;-69
2023/03/06 06:36:22;;;;;;;42.40;16.67;;;;;;;-1.76;100.00;99442.52;5060066;56;1141064;-67
2023/03/06 06:41:28;;;;;;;37.17;16.23;;;;;;;-1.70;100.00;99454.38;5084269;56;1140897;-71
2023/03/06 06:46:35;;;;;;;38.42;15.55;;;;;;;-1.64;100.00;99438.53;5087248;56;1140998;-75
2023/03/06 06:51:41;;;;;;;45.23;19.57;;;;;;;-1.55;100.00;99446.76;5027902;56;1141133;-74
2023/03/06 06:56:47;;;;;;;46.35;22.98;;;;;;;-1.48;100.00;99440.36;5151721;55;1140736;-76
2023/03/06 07:01:53;;;;;;;40.53;17.43;;;;;;;-1.45;100.00;99439.39;5121513;55;1140865;-78
2023/03/06 07:07:00;;;;;;;42.33;18.00;;;;;;;-1.44;100.00;99441.07;5110564;55;1140977;-77
2023/03/06 07:12:07;;;;;;;53.30;21.90;;;;;;;-1.37;100.00;99443.75;5166274;55;1141045;-75
2023/03/06 07:17:12;;;;;;;52.53;20.10;;;;;;;-1.38;100.00;99442.55;5129761;55;1141030;-78
2023/03/06 07:22:18;;;;;;;36.77;16.00;;;;;;;-1.37;100.00;99439.02;5065501;55;1140980;-77
2023/03/06 07:27:25;;;;;;;28.17;12.43;;;;;;;-1.36;100.00;99442.84;5065484;56;1140915;-74
2023/03/06 07:32:31;;;;;;;27.53;13.43;;;;;;;-1.28;100.00;99441.20;5071039;55;1140937;-76
2023/03/06 07:37:37;;;;;;;26.47;10.63;;;;;;;-1.23;100.00;99443.98;5099434;55;1140941;-78
2023/03/06 07:42:43;;;;;;;34.73;14.20;;;;;;;-1.13;100.00;99441.78;5106514;55;1140903;-76
2023/03/06 07:47:52;;;;;;;28.53;11.13;;;;;;;-1.07;100.00;99451.89;5135931;55;1141050;-73
2023/03/06 07:52:58;;;;;;;19.97;8.20;;;;;;;-1.05;100.00;99443.55;5099061;55;1140981;-76
2023/03/06 07:58:04;;;;;;;23.13;9.67;;;;;;;-1.08;100.00;99453.64;5085211;55;1138869;-76
2023/03/06 08:03:14;;;;;;;18.30;8.53;;;;;;;-1.09;100.00;99445.92;5136365;55;1138722;-77
2023/03/06 08:08:20;;;;;;;18.17;7.73;;;;;;;-1.06;100.00;99444.45;5102335;55;1138782;-76
2023/03/06 08:13:26;;;;;;;13.57;6.73;;;;;;;-1.06;100.00;99440.11;5178646;55;1138819;-75
2023/03/06 08:18:32;;;;;;;16.90;8.57;;;;;;;-0.99;100.00;99432.05;5191713;55;1139031;-78
2023/03/06 08:23:38;;;;;;;65.12;29.55;;;;;;;-0.99;100.00;99445.86;5182578;55;1138972;-77
2023/03/06 08:28:44;;;;;;;50.90;21.07;;;;;;;-0.77;100.00;99434.84;5149374;54;1140999;-76
2023/03/06 08:33:51;;;;;;;9.43;4.20;;;;;;;-0.77;100.00;99434.84;5168397;55;1140956;-76
2023/03/06 08:38:58;;;;;;;13.90;4.83;;;;;;;-0.68;100.00;99431.41;5183228;55;1136656;-72
2023/03/06 08:44:04;;;;;;;30.43;10.70;;;;;;;-0.54;100.00;99435.00;5188383;55;1138715;-74
2023/03/06 08:49:12;;;;;;;11.57;6.27;;;;;;;-0.43;100.00;99426.66;5160579;55;1141003;-75
2023/03/06 08:54:18;;;;;;;11.73;5.33;;;;;;;-0.36;100.00;99430.19;5167258;55;1138770;-76
2023/03/06 08:59:24;;;;;;;7.15;3.30;;;;;;;-0.37;100.00;99432.41;5167583;55;1138736;-79
2023/03/06 09:04:31;;;;;;;25.90;14.80;;;;;;;-0.32;100.00;99428.74;5126814;55;1136847;-75
2023/03/06 09:09:37;;;;;;;7.62;2.95;;;;;;;-0.31;100.00;99431.27;5192799;55;1140831;-71
2023/03/06 09:14:43;;;;;;;19.90;10.53;;;;;;;-0.25;100.00;99433.53;5182084;55;1136765;-70
2023/03/06 09:19:51;;;;;;;4.85;2.47;;;;;;;-0.21;100.00;99428.58;5163601;55;1140844;-68
2023/03/06 09:24:57;;;;;;;5.07;1.80;;;;;;;-0.20;100.00;99438.05;5182553;55;1136671;-70
2023/03/06 09:30:03;;;;;;;178.90;109.35;;;;;;;-0.16;100.00;99438.28;5166463;55;1136845;-65
2023/03/06 09:35:09;;;;;;;36.77;20.77;;;;;;;-0.09;100.00;99440.09;5149539;55;1144897;-70
2023/03/06 09:40:23;;;;;;;128.13;57.77;;;;;;;-0.04;100.00;99443.30;5164671;55;1140782;-68
2023/03/06 09:45:30;;;;;;;24.23;13.63;;;;;;;-0.09;100.00;99436.19;5159233;55;1263730;-70
2023/03/06 09:50:54;;;;;;;29.20;11.63;;;;;;;-0.10;100.00;99432.75;5166267;55;1140841;-72
2023/03/06 09:56:05;;;;;;;17.12;7.58;;;;;;;-0.10;100.00;99436.66;5178139;55;1140958;-68
2023/03/06 10:01:26;;;;;;;17.20;6.57;;;;;;;-0.09;100.00;99440.94;5193844;55;1138972;-70
2023/03/06 10:06:42;;;;;;;7.97;4.07;;;;;;;-0.06;100.00;99445.14;5147130;55;1138709;-67
2023/03/06 10:12:07;;;;;;;22.23;7.63;;;;;;;-0.02;100.00;99440.17;5166457;55;1136686;-66
2023/03/06 10:17:20;;;;;;;25.90;13.70;;;;;;;0.03;100.00;99443.35;5167803;55;1138744;-80
2023/03/06 10:22:36;;;;;;;25.07;10.07;;;;;;;0.05;100.00;99436.78;5148805;55;1138645;-81
2023/03/06 10:28:17;;;;;;;11.10;6.10;;;;;;;0.11;100.00;99433.88;5104768;55;1138596;-76
2023/03/06 10:33:39;;;;;;;16.63;7.90;;;;;;;0.08;100.00;99434.02;5031572;56;1136719;-73
2023/03/06 10:38:47;;;;;;;94.03;30.93;;;;;;;0.08;100.00;99434.87;4961160;56;1136958;-79
2023/03/06 10:44:08;;;;;;;32.37;17.23;;;;;;;0.10;100.00;99426.53;4991138;56;1138777;-78
2023/03/06 10:49:33;;;;;;;113.12;47.27;;;;;;;0.12;100.00;99431.66;5034418;56;1139046;-75
2023/03/06 10:54:43;;;;;;;5.70;3.30;;;;;;;0.16;100.00;99422.30;5034743;56;1140872;-75
2023/03/06 10:59:59;;;;;;;20.70;8.20;;;;;;;0.13;100.00;99418.58;5023324;55;1134835;-81
2023/03/06 11:05:07;;;;;;;13.25;6.45;;;;;;;0.09;100.00;99417.52;5077808;56;1136698;-79
2023/03/06 11:10:20;;;;;;;9.13;5.90;;;;;;;0.14;100.00;99413.77;5088269;55;1136799;-80
2023/03/06 11:15:28;;;;;;;29.53;8.83;;;;;;;0.22;100.00;99415.48;5139106;55;1134549;-76
2023/03/06 11:20:47;;;;;;;8.23;4.23;;;;;;;0.23;100.00;99409.36;5151081;55;1141264;-80
2023/03/06 11:25:57;;;;;;;8.10;4.97;;;;;;;0.21;100.00;99403.86;5147397;55;1134543;-74
2023/03/06 11:31:08;;;;;;;11.30;5.47;;;;;;;0.23;100.00;99409.83;5139132;55;1134601;-74
2023/03/06 11:36:24;;;;;;;12.10;6.50;;;;;;;0.21;100.00;99398.66;5164721;55;1136678;-79
2023/03/06 11:41:40;;;;;;;13.47;5.67;;;;;;;0.30;100.00;99398.19;4937878;57;1136765;-75
2023/03/06 11:47:07;;;;;;;10.80;5.10;;;;;;;0.35;100.00;99391.80;4919406;57;1136896;-76
2023/03/06 11:52:19;;;;;;;12.30;6.17;;;;;;;0.27;100.00;99397.89;4967628;57;1136820;-77
2023/03/06 11:57:29;;;;;;;13.50;6.10;;;;;;;0.22;100.00;99390.78;5008520;57;1136708;-76
2023/03/06 12:03:02;;;;;;;10.87;4.70;;;;;;;0.26;100.00;99391.00;4984051;57;1136674;-77
2023/03/06 12:08:48;;;;;;;9.10;5.00;;;;;;;0.25;100.00;99384.13;5122468;55;1136836;-71
2023/03/06 12:14:21;;;;;;;9.07;4.80;;;;;;;0.34;100.00;99386.22;5131251;55;1134795;-70
2023/03/06 12:20:05;;;;;;;31.53;8.50;;;;;;;0.38;100.00;99381.70;5127900;55;1134709;-72
2023/03/06 12:25:29;;;;;;;11.37;4.60;;;;;;;0.39;100.00;99379.94;5132640;55;1136720;-71
2023/03/06 12:30:48;;;;;;;7.07;4.20;;;;;;;0.40;100.00;99377.72;5163785;55;1136620;-67
2023/03/06 12:36:40;;;;;;;28.23;9.70;;;;;;;0.43;100.00;99382.30;5033649;56;1134583;-70
2023/03/06 12:42:11;;;;;;;13.13;6.22;;;;;;;0.45;100.00;99384.36;5115736;55;1136537;-67
2023/03/06 12:47:21;;;;;;;7.57;4.70;;;;;;;0.49;100.00;99388.91;5084750;55;1136583;-70
2023/03/06 12:52:30;;;;;;;10.17;5.97;;;;;;;0.45;100.00;99388.27;5148448;55;1134530;-68
2023/03/06 12:57:36;;;;;;;11.13;4.93;;;;;;;0.46;100.00;99383.41;5098169;54;1136755;-73
2023/03/06 13:03:01;;;;;;;8.33;4.70;;;;;;;0.45;100.00;99385.66;5138857;55;1136589;-72
2023/03/06 13:08:15;;;;;;;11.30;6.03;;;;;;;0.47;100.00;99379.88;5135651;55;1134608;-67
2023/03/06 13:13:44;;;;;;;15.53;7.13;;;;;;;0.47;100.00;99379.88;5165218;55;1136605;-72
2023/03/06 13:18:57;;;;;;;11.57;6.58;;;;;;;0.50;100.00;99377.58;5139801;55;1136751;-70
2023/03/06 13:24:08;;;;;;;11.48;6.55;;;;;;;0.53;100.00;99378.27;5120027;55;1136639;-66
2023/03/06 13:29:41;;;;;;;22.90;9.67;;;;;;;0.48;100.00;99379.42;5138216;55;1136566;-69
2023/03/06 13:34:50;;;;;;;176.97;128.20;;;;;;;0.46;100.00;99368.30;5062362;55;1136626;-75
2023/03/06 13:40:05;;;;;;;22.70;12.15;;;;;;;0.55;100.00;99371.22;5180715;55;1142944;-76
2023/03/06 13:45:23;;;;;;;15.53;8.98;;;;;;;0.59;100.00;99369.30;5219142;55;1138757;-81
2023/03/06 13:50:44;;;;;;;16.23;9.57;;;;;;;0.63;100.00;99370.31;5199219;55;1136574;-75
2023/03/06 13:56:09;;;;;;;22.93;14.30;;;;;;;0.68;100.00;99371.38;5199276;55;1136628;-78
2023/03/06 14:01:47;;;;;;;14.23;8.63;;;;;;;0.66;100.00;99370.62;5042753;56;1138719;-78
2023/03/06 14:07:27;;;;;;;32.93;14.53;;;;;;;0.65;100.00;99373.67;5033326;56;1136799;-85
2023/03/06 14:12:38;;;;;;;20.88;12.58;;;;;;;0.59;100.00;99367.99;5061656;56;1138852;-80
2023/03/06 14:17:48;;;;;;;19.25;10.28;;;;;;;0.59;100.00;99360.19;5048658;55;1138823;-75
2023/03/06 14:22:54;;;;;;;30.30;13.77;;;;;;;0.58;100.00;99367.61;5032635;56;1138931;-78
2023/03/06 14:28:00;;;;;;;15.63;7.40;;;;;;;0.62;100.00;99362.59;5060799;56;1138888;-76
2023/03/06 14:33:10;;;;;;;16.35;7.65;;;;;;;0.63;100.00;99363.81;5035336;56;1136713;-77
2023/03/06 14:38:16;;;;;;;55.77;31.17;;;;;;;0.63;100.00;99366.88;5129994;55;1136589;-77
2023/03/06 14:43:27;;;;;;;53.80;24.00;;;;;;;0.61;100.00;99371.35;5198951;55;1138738;-83
2023/03/06 14:48:46;;;;;;;9.47;5.17;;;;;;;0.61;100.00;99366.95;5216862;55;1138713;-77
2023/03/06 14:53:55;;;;;;;7.87;4.80;;;;;;;0.62;100.00;99367.34;5176228;55;1134769;-77
2023/03/06 14:59:07;;;;;;;44.33;21.80;;;;;;;0.57;100.00;99368.53;5094100;55;1134684;-76
2023/03/06 15:04:50;;;;;;;41.60;20.03;;;;;;;0.55;100.00;99371.67;5153167;55;1138631;-76
2023/03/06 15:09:56;;;;;;;16.97;10.57;;;;;;;0.58;100.00;99354.61;5140497;55;1138681;-79
2023/03/06 15:15:09;;;;;;;18.13;8.57;;;;;;;0.71;100.00;99358.20;5051177;55;1138754;-76
2023/03/06 15:20:44;;;;;;;22.75;11.25;;;;;;;0.73;100.00;99358.12;5191161;55;1136881;-82
2023/03/06 15:26:00;;;;;;;32.70;15.20;;;;;;;0.76;100.00;99355.34;5149886;55;1138929;-82
2023/03/06 15:31:23;;;;;;;18.97;9.30;;;;;;;0.85;100.00;99363.47;5167181;55;1138824;-79
2023/03/06 15:36:29;;;;;;;30.27;14.27;;;;;;;0.90;100.00;99367.13;5146011;55;1136647;-78
2023/03/06 15:41:40;;;;;;;77.97;33.03;;;;;;;0.89;100.00;99363.67;5120518;55;1218211;-77
2023/03/06 15:46:46;;;;;;;55.80;26.57;;;;;;;0.87;100.00;99362.92;5130528;56;1138809;-79
2023/03/06 15:51:52;;;;;;;27.40;14.90;;;;;;;0.87;100.00;99365.98;5057247;55;1138738;-81
2023/03/06 15:56:58;;;;;;;20.87;10.43;;;;;;;0.86;100.00;99356.04;5065587;56;1138759;-82
2023/03/06 16:02:08;;;;;;;25.57;12.37;;;;;;;0.85;100.00;99358.27;5082107;55;1138930;-77
2023/03/06 16:07:15;;;;;;;35.13;17.60;;;;;;;0.85;100.00;99362.63;5109958;55;1138798;-75
2023/03/06 16:12:22;;;;;;;27.63;12.73;;;;;;;0.84;100.00;99365.69;5118209;56;1138727;-77
2023/03/06 16:17:28;;;;;;;35.33;14.00;;;;;;;0.85;100.00;99369.13;5105431;55;1138585;-78
2023/03/06 16:22:34;;;;;;;32.23;14.63;;;;;;;0.89;100.00;99370.65;5110975;55;1138652;-79
2023/03/06 16:27:41;;;;;;;102.10;35.40;;;;;;;0.84;100.00;99380.00;5138539;55;1146072;-77
2023/03/06 16:32:47;;;;;;;548.67;123.20;;;;;;;0.77;100.00;99366.11;5150364;55;1140896;-82
2023/03/06 16:37:53;;;;;;;598.73;129.73;;;;;;;0.68;100.00;99369.61;5106141;55;1143116;-80
2023/03/06 16:42:59;;;;;;;586.80;176.27;;;;;;;0.66;100.00;99366.25;5235583;55;1143037;-82
2023/03/06 16:48:07;;;;;;;423.17;109.63;;;;;;;0.69;100.00;99367.85;5216113;55;1142855;-79
2023/03/06 16:53:14;;;;;;;391.67;94.27;;;;;;;0.72;100.00;99371.59;5216405;55;1142824;-82
2023/03/06 16:58:20;;;;;;;318.97;80.47;;;;;;;0.73;100.00;99378.94;5237074;55;1141037;-83
2023/03/06 17:03:25;;;;;;;348.60;85.13;;;;;;;0.72;100.00;99382.45;5210590;55;1141066;-74
2023/03/06 17:08:31;;;;;;;188.93;49.38;;;;;;;0.64;100.00;99391.97;5128425;56;1140916;-78
2023/03/06 17:13:37;;;;;;;298.97;57.67;;;;;;;0.44;100.00;99392.24;5150694;55;1140818;-83
2023/03/06 17:18:45;;;;;;;292.85;55.55;;;;;;;0.35;100.00;99398.77;5126501;55;1140873;-85
2023/03/06 17:23:51;;;;;;;267.77;67.00;;;;;;;0.37;100.00;99396.92;5005492;56;1140998;-87
2023/03/06 17:28:57;;;;;;;238.47;59.17;;;;;;;0.40;100.00;99392.02;5238509;54;1140942;-79
2023/03/06 17:34:03;;;;;;;252.97;86.07;;;;;;;0.40;100.00;99390.27;5214361;55;1140902;-83
2023/03/06 17:39:11;;;;;;;178.83;64.03;;;;;;;0.37;100.00;99391.72;5172164;55;1140900;-78
2023/03/06 17:44:18;;;;;;;478.30;154.67;;;;;;;0.31;100.00;99398.08;5182222;56;1140962;-83
2023/03/06 17:49:24;;;;;;;504.93;179.10;;;;;;;0.29;100.00;99403.84;5118275;55;1142953;-82
2023/03/06 17:54:31;;;;;;;543.87;197.73;;;;;;;0.24;100.00;99396.75;5172204;55;1143022;-80
2023/03/06 17:59:39;;;;;;;299.23;94.65;;;;;;;0.23;100.00;99400.72;5181839;55;1143071;-79
2023/03/06 18:04:44;;;;;;;157.00;47.65;;;;;;;0.20;100.00;99396.52;5118811;55;1140927;-86
2023/03/06 18:09:51;;;;;;;168.37;56.40;;;;;;;0.15;100.00;99385.55;5088296;56;1141144;-83
2023/03/06 18:14:56;;;;;;;162.12;59.67;;;;;;;0.18;100.00;99396.22;5086846;56;1141397;-73
2023/03/06 18:20:03;;;;;;;157.07;68.63;;;;;;;0.17;100.00;99390.17;5097320;55;1141352;-77
2023/03/06 18:25:10;;;;;;;265.03;92.90;;;;;;;0.14;100.00;99391.66;5107647;56;1141085;-77
2023/03/06 18:30:16;;;;;;;194.60;70.00;;;;;;;0.08;100.00;99392.44;5094485;56;1141061;-80
2023/03/06 18:35:22;;;;;;;179.80;58.53;;;;;;;0.03;100.00;99403.06;5070959;56;1141229;-75
2023/03/06 18:40:28;;;;;;;180.80;71.40;;;;;;;0.02;100.00;99409.64;5121430;55;1140947;-75
2023/03/06 18:45:34;;;;;;;75.67;32.97;;;;;;;0.03;100.00;99412.63;5150940;56;1140874;-77
2023/03/06 18:50:40;;;;;;;52.47;25.40;;;;;;;-0.12;100.00;99411.20;5178612;55;1141117;-78
2023/03/06 18:55:53;;;;;;;63.02;34.60;;;;;;;-0.31;100.00;99410.48;5178719;55;1140964;-79
2023/03/06 19:01:01;;;;;;;72.55;34.43;;;;;;;-0.39;100.00;99417.35;5178607;55;1141042;-79
2023/03/06 19:06:14;;;;;;;103.67;40.07;;;;;;;-0.48;100.00;99414.39;5148179;55;1141163;-87
2023/03/06 19:11:19;;;;;;;111.70;40.23;;;;;;;-0.54;100.00;99421.17;5167031;55;1142886;-85
2023/03/06 19:16:29;;;;;;;72.40;29.65;;;;;;;-0.62;100.00;99425.92;5186797;55;1143187;-76
2023/03/06 19:21:35;;;;;;;111.20;52.07;;;;;;;-0.67;100.00;99422.70;5180818;55;1140745;-79
2023/03/06 19:26:42;;;;;;;156.67;68.23;;;;;;;-0.67;100.00;99424.84;5165019;55;1142923;-70
2023/03/06 19:31:50;;;;;;;139.28;60.88;;;;;;;-0.63;100.00;99426.84;5149927;55;1142777;-72
2023/03/06 19:36:56;;;;;;;114.15;49.88;;;;;;;-0.59;100.00;99427.88;5144417;55;1142942;-72
2023/03/06 19:42:03;;;;;;;115.67;51.57;;;;;;;-0.50;100.00;99439.14;4970424;57;1142979;-66
2023/03/06 19:47:09;;;;;;;78.60;32.50;;;;;;;-0.46;100.00;99435.45;4950804;57;1142901;-72
2023/03/06 19:52:15;;;;;;;93.50;35.43;;;;;;;-0.46;100.00;99441.94;4960924;57;1140938;-72
2023/03/06 19:57:21;;;;;;;82.60;33.03;;;;;;;-0.55;100.00;99438.52;5009247;57;1140922;-66
2023/03/06 20:02:27;;;;;;;69.90;29.00;;;;;;;-0.61;100.00;99442.70;4932593;58;1140765;-68
2023/03/06 20:07:33;;;;;;;77.65;33.35;;;;;;;-0.59;100.00;99442.63;4965526;56;1140741;-70
2023/03/06 20:12:39;;;;;;;172.33;49.77;;;;;;;-0.60;100.00;99439.64;4986125;58;1140937;-68
2023/03/06 20:17:45;;;;;;;136.22;41.23;;;;;;;-0.63;100.00;99443.71;4946044;58;1143001;-68
2023/03/06 20:22:51;;;;;;;125.57;38.00;;;;;;;-0.68;100.00;99442.63;4935279;57;1142996;-69
2023/03/06 20:27:56;;;;;;;732.73;165.05;;;;;;;-0.69;100.00;99436.22;4989566;57;1143098;-66
2023/03/06 20:33:02;;;;;;;279.83;71.97;;;;;;;-0.73;100.00;99436.36;4905096;58;1232227;-70
2023/03/06 20:38:08;;;;;;;318.33;78.20;;;;;;;-0.78;100.00;99435.77;5009712;56;1249608;-68
2023/03/06 20:43:14;;;;;;;431.20;96.53;;;;;;;-0.77;100.00;99439.20;5036512;56;1143138;-69
2023/03/06 20:48:20;;;;;;;429.33;99.80;;;;;;;-0.76;100.00;99442.98;4949148;56;1143020;-69
2023/03/06 20:53:26;;;;;;;387.53;79.03;;;;;;;-0.76;100.00;99440.85;4958877;57;1143010;-66
2023/03/06 20:58:32;;;;;;;219.27;54.17;;;;;;;-0.80;100.00;99433.70;4975496;57;1142823;-68
2023/03/06 21:03:37;;;;;;;300.77;71.63;;;;;;;-0.87;100.00;99440.53;4998419;57;1142930;-65
2023/03/06 21:08:44;;;;;;;431.07;95.77;;;;;;;-0.94;100.00;99433.52;4977965;57;1142942;-67
2023/03/06 21:13:52;;;;;;;1245.58;308.17;;;;;;;-0.94;100.00;99433.52;4954578;57;1142958;-67
2023/03/06 21:19:00;;;;;;;1051.70;271.63;;;;;;;-0.92;100.00;99436.89;5040392;56;1147118;-68
2023/03/06 21:24:06;;;;;;;328.32;83.70;;;;;;;-0.93;100.00;99428.72;4962604;57;1147186;-70
2023/03/06 21:29:12;;;;;;;163.47;47.10;;;;;;;-0.96;100.00;99436.64;4931721;57;1142952;-71
2023/03/06 21:34:18;;;;;;;133.18;43.75;;;;;;;-1.15;100.00;99427.59;5010967;57;1142932;-70
2023/03/06 21:39:23;;;;;;;160.93;49.60;;;;;;;-1.33;100.00;99429.73;5090500;56;1143083;-68
2023/03/06 21:44:30;;;;;;;237.80;63.90;;;;;;;-1.44;100.00;99430.25;5017048;57;1143006;-68
2023/03/06 21:49:36;;;;;;;211.33;60.17;;;;;;;-1.51;100.00;99423.64;5169277;55;1143231;-65
2023/03/06 21:54:42;;;;;;;164.30;49.70;;;;;;;-1.59;100.00;99427.06;5155125;55;1142979;-69
2023/03/06 21:59:48;;;;;;;123.67;40.93;;;;;;;-1.66;100.00;99428.69;5166600;55;1143610;-73
2023/03/06 22:04:54;;;;;;;190.67;58.87;;;;;;;-1.70;100.00;99421.53;5234757;55;1143027;-70
2023/03/06 22:10:00;;;;;;;450.43;116.57;;;;;;;-1.65;100.00;99422.59;5208075;55;1142896;-71
2023/03/06 22:15:06;;;;;;;649.50;195.40;;;;;;;-1.55;100.00;99418.23;5234404;55;1145244;-68
2023/03/06 22:20:14;;;;;;;484.77;138.30;;;;;;;-1.47;100.00;99413.98;5192253;54;1145113;-70
2023/03/06 22:25:20;;;;;;;461.75;132.20;;;;;;;-1.39;100.00;99417.53;5123582;55;1145167;-69
2023/03/06 22:30:26;;;;;;;474.30;139.40;;;;;;;-1.36;100.00;99415.61;5121002;55;1145196;-70
2023/03/06 22:35:32;;;;;;;402.80;115.57;;;;;;;-1.34;100.00;99416.39;5148531;55;1145028;-67
2023/03/06 22:40:38;;;;;;;331.05;105.00;;;;;;;-1.34;100.00;99414.25;5130032;56;1144950;-70
2023/03/06 22:45:44;;;;;;;142.32;48.52;;;;;;;-1.38;100.00;99418.77;5127511;56;1145515;-68
2023/03/06 22:50:50;;;;;;;129.05;45.52;;;;;;;-1.50;100.00;99413.66;5109507;56;1143013;-71
2023/03/06 22:55:59;;;;;;;111.53;50.70;;;;;;;-1.62;100.00;99401.72;5146323;55;1143060;-70
2023/03/06 23:01:12;;;;;;;154.53;63.47;;;;;;;-1.62;100.00;99401.72;5129496;55;1143101;-67